createdAt,value
2023-04-14T00:00:39.611Z,42.78
2023-04-14T00:03:06.901Z,43.65
2023-04-14T00:05:35.238Z,43.80
2023-04-14T00:08:02.318Z,44.70
2023-04-14T00:10:29.493Z,38.25
2023-04-14T00:12:56.685Z,44.90
2023-04-14T00:15:23.965Z,43.17
2023-04-14T00:17:51.149Z,45.65
2023-04-14T00:20:18.255Z,38.72
2023-04-14T00:22:45.654Z,39.33
2023-04-14T00:25:12.740Z,42.95
2023-04-14T00:27:39.842Z,44.88
2023-04-14T00:30:08.927Z,44.35
2023-04-14T00:32:36.071Z,38.75
2023-04-14T00:35:03.822Z,41.38
2023-04-14T00:37:31.164Z,38.83
2023-04-14T00:39:59.973Z,36.63
2023-04-14T00:42:27.460Z,40.10
2023-04-14T00:44:54.492Z,40.58
2023-04-14T00:47:23.257Z,40.85
2023-04-14T00:49:51.530Z,38.53
2023-04-14T00:52:19.645Z,36.67
2023-04-14T00:54:46.893Z,40.15
2023-04-14T00:57:13.950Z,39.15
2023-04-14T00:59:41.313Z,40.47
2023-04-14T01:02:08.792Z,36.80
2023-04-14T01:04:52.068Z,38.38
2023-04-14T01:07:21.910Z,38.40
2023-04-14T01:09:50.223Z,35.33
2023-04-14T01:12:41.517Z,39.58
2023-04-14T01:15:20.788Z,38.70
2023-04-14T01:17:50.992Z,39.63
2023-04-14T01:20:42.776Z,37.17
2023-04-14T01:23:13.777Z,35.92
2023-04-14T01:26:15.098Z,37.08
2023-04-14T01:29:13.205Z,33.67
2023-04-14T01:31:56.496Z,34.63
2023-04-14T01:34:51.215Z,33.72
2023-04-14T01:37:27.454Z,36.38
2023-04-14T01:39:55.681Z,34.35
2023-04-14T01:42:26.943Z,35.72
2023-04-14T01:44:59.005Z,39.28
2023-04-14T01:47:28.227Z,35.65
2023-04-14T01:49:57.342Z,37.80
2023-04-14T01:52:26.226Z,35.97
2023-04-14T01:54:55.432Z,33.08
2023-04-14T01:57:26.611Z,32.22
2023-04-14T01:59:57.802Z,38.03
2023-04-14T02:02:26.814Z,35.13
2023-04-14T02:04:57.563Z,37.70
2023-04-14T02:07:26.134Z,34.83
2023-04-14T02:09:54.348Z,39.78
2023-04-14T02:12:24.791Z,35.53
2023-04-14T02:14:53.653Z,36.35
2023-04-14T02:17:22.288Z,34.50
2023-04-14T02:19:50.385Z,34.67
2023-04-14T02:22:18.983Z,32.77
2023-04-14T02:24:47.872Z,33.78
2023-04-14T02:27:21.551Z,32.55
2023-04-14T02:29:55.110Z,31.75
2023-04-14T02:32:26.051Z,32.95
2023-04-14T02:35:01.146Z,35.78
2023-04-14T02:37:36.235Z,35.45
2023-04-14T02:40:36.180Z,34.33
2023-04-14T02:43:10.724Z,32.88
2023-04-14T02:45:40.790Z,34.15
2023-04-14T02:48:12.691Z,34.17
2023-04-14T02:50:45.852Z,32.08
2023-04-14T02:53:20.524Z,35.03
2023-04-14T02:55:49.841Z,34.72
2023-04-14T02:58:19.735Z,37.65
2023-04-14T03:00:47.908Z,35.22
2023-04-14T03:03:17.233Z,33.35
2023-04-14T03:05:47.270Z,34.72
2023-04-14T03:08:16.972Z,35.77
2023-04-14T03:10:49.016Z,35.55
2023-04-14T03:13:22.059Z,37.17
2023-04-14T03:15:50.424Z,35.75
2023-04-14T03:18:19.075Z,33.35
2023-04-14T03:20:47.402Z,32.13
2023-04-14T03:23:19.141Z,31.45
2023-04-14T03:25:55.430Z,33.83
2023-04-14T03:28:30.607Z,34.35
2023-04-14T03:31:01.570Z,30.38
2023-04-14T03:33:36.373Z,34.88
2023-04-14T03:36:04.907Z,31.67
2023-04-14T03:38:34.875Z,35.58
2023-04-14T03:41:06.464Z,39.38
2023-04-14T03:43:34.163Z,42.65
2023-04-14T03:46:07.546Z,43.20
2023-04-14T03:48:42.807Z,45.40
2023-04-14T03:51:14.234Z,48.92
2023-04-14T03:53:45.157Z,50.00
2023-04-14T03:56:14.271Z,45.38
2023-04-14T03:58:47.422Z,58.05
2023-04-14T04:01:18.141Z,53.22
2023-04-14T04:03:46.853Z,43.80
2023-04-14T04:06:16.026Z,48.03
2023-04-14T04:08:44.822Z,43.53
2023-04-14T04:11:13.483Z,40.90
2023-04-14T04:13:42.596Z,41.30
2023-04-14T04:16:12.318Z,40.28
2023-04-14T04:18:40.905Z,39.28
2023-04-14T04:21:10.904Z,43.53
2023-04-14T04:23:42.037Z,43.50
2023-04-14T04:26:09.772Z,39.78
2023-04-14T04:28:39.090Z,40.03
2023-04-14T04:31:07.089Z,38.65
2023-04-14T04:33:34.846Z,40.33
2023-04-14T04:36:05.691Z,42.13
2023-04-14T04:38:38.373Z,41.17
2023-04-14T04:41:05.609Z,39.08
2023-04-14T04:43:32.745Z,41.08
2023-04-14T04:46:11.707Z,42.17
2023-04-14T04:48:39.049Z,41.40
2023-04-14T04:51:06.282Z,39.55
2023-04-14T04:53:33.464Z,38.08
2023-04-14T04:56:00.537Z,43.15
2023-04-14T04:58:27.620Z,37.33
2023-04-14T05:00:54.934Z,42.42
2023-04-14T05:03:22.204Z,39.55
2023-04-14T05:05:49.373Z,39.65
2023-04-14T05:08:16.526Z,36.78
2023-04-14T05:10:44.702Z,34.40
2023-04-14T05:13:11.764Z,41.10
2023-04-14T05:15:38.923Z,39.25
2023-04-14T05:18:06.152Z,37.22
2023-04-14T05:20:34.897Z,34.83
2023-04-14T05:23:02.395Z,39.45
2023-04-14T05:25:29.542Z,36.38
2023-04-14T05:27:56.620Z,34.97
2023-04-14T05:30:24.005Z,36.63
2023-04-14T05:32:51.645Z,34.35
2023-04-14T05:35:18.745Z,37.22
2023-04-14T05:37:45.878Z,32.47
2023-04-14T05:40:13.390Z,33.40
2023-04-14T05:42:42.070Z,33.28
2023-04-14T05:45:09.976Z,37.80
2023-04-14T05:47:37.450Z,32.92
2023-04-14T05:50:05.053Z,33.85
2023-04-14T05:52:32.169Z,33.58
2023-04-14T05:54:59.231Z,33.83
2023-04-14T05:57:26.420Z,33.97
2023-04-14T05:59:53.475Z,32.72
2023-04-14T06:02:20.519Z,32.50
2023-04-14T06:04:47.972Z,35.53
2023-04-14T06:07:15.401Z,31.35
2023-04-14T06:09:46.744Z,33.53
2023-04-14T06:12:14.447Z,31.92
2023-04-14T06:14:41.510Z,32.40
2023-04-14T06:17:08.997Z,31.35
2023-04-14T06:19:36.062Z,32.95
2023-04-14T06:22:03.154Z,34.10
2023-04-14T06:24:30.325Z,34.25
2023-04-14T06:26:58.709Z,33.80
2023-04-14T06:29:25.965Z,35.65
2023-04-14T06:31:55.134Z,34.63
2023-04-14T06:34:22.246Z,33.42
2023-04-14T06:36:49.480Z,34.78
2023-04-14T06:39:16.651Z,30.35
2023-04-14T06:41:44.195Z,30.20
2023-04-14T06:44:13.434Z,29.90
2023-04-14T06:46:40.595Z,30.52
2023-04-14T06:49:07.906Z,29.02
2023-04-14T06:51:35.544Z,30.35
2023-04-14T06:54:03.046Z,33.30
2023-04-14T06:56:30.546Z,31.27
2023-04-14T06:58:57.568Z,31.52
2023-04-14T07:01:24.600Z,34.33
2023-04-14T07:03:51.791Z,30.35
2023-04-14T07:06:18.898Z,33.25
2023-04-14T07:08:46.739Z,36.58
2023-04-14T07:11:13.896Z,33.13
2023-04-14T07:13:41.725Z,28.77
2023-04-14T07:16:09.022Z,30.80
2023-04-14T07:18:36.488Z,29.98
2023-04-14T07:21:03.748Z,28.00
2023-04-14T07:23:31.228Z,29.73
2023-04-14T07:25:59.596Z,31.08
2023-04-14T07:28:28.382Z,30.83
2023-04-14T07:30:55.634Z,29.75
2023-04-14T07:33:22.854Z,29.27
2023-04-14T07:36:00.712Z,32.42
2023-04-14T07:38:29.773Z,35.35
2023-04-14T07:40:56.978Z,28.33
2023-04-14T07:43:24.196Z,26.50
2023-04-14T07:45:53.358Z,32.72
2023-04-14T07:48:21.834Z,30.90
2023-04-14T07:50:51.644Z,37.92
2023-04-14T07:53:18.713Z,32.40
2023-04-14T07:55:45.968Z,30.23
2023-04-14T07:58:15.740Z,31.27
2023-04-14T08:00:43.571Z,28.02
2023-04-14T08:03:10.933Z,26.67
2023-04-14T08:05:38.263Z,31.52
2023-04-14T08:08:05.728Z,26.17
2023-04-14T08:10:32.883Z,25.05
2023-04-14T08:13:01.579Z,25.23
2023-04-14T08:15:32.417Z,29.15
2023-04-14T08:17:59.747Z,27.27
2023-04-14T08:20:27.141Z,26.42
2023-04-14T08:22:55.503Z,24.95
2023-04-14T08:25:22.652Z,23.33
2023-04-14T08:27:49.761Z,31.23
2023-04-14T08:30:16.956Z,25.20
2023-04-14T08:32:44.176Z,24.75
2023-04-14T08:35:39.536Z,24.20
2023-04-14T08:38:01.454Z,23.65
2023-04-14T08:40:38.566Z,21.55
2023-04-14T08:43:06.778Z,22.33
2023-04-14T08:45:34.674Z,22.17
2023-04-14T08:48:06.175Z,25.88
2023-04-14T08:50:38.177Z,20.73
2023-04-14T08:53:09.660Z,16.88
2023-04-14T08:55:43.516Z,18.10
2023-04-14T08:58:11.401Z,15.52
2023-04-14T09:00:40.432Z,18.40
2023-04-14T09:03:09.407Z,15.75
2023-04-14T09:05:37.542Z,16.42
2023-04-14T09:08:05.007Z,17.58
2023-04-14T09:10:32.713Z,18.35
2023-04-14T09:13:01.608Z,19.65
2023-04-14T09:15:29.426Z,23.38
2023-04-14T09:17:56.893Z,15.82
2023-04-14T09:20:34.707Z,16.70
2023-04-14T09:23:09.747Z,17.80
2023-04-14T09:25:39.153Z,15.63
2023-04-14T09:28:06.431Z,16.77
2023-04-14T09:30:33.803Z,15.73
2023-04-14T09:33:07.859Z,16.08
2023-04-14T09:35:50.966Z,16.58
2023-04-14T09:38:37.872Z,15.13
2023-04-14T09:41:08.518Z,17.27
2023-04-14T09:43:37.003Z,17.63
2023-04-14T09:46:10.976Z,18.92
2023-04-14T09:48:57.916Z,16.77
2023-04-14T09:51:29.760Z,16.70
2023-04-14T09:54:06.345Z,14.57
2023-04-14T09:56:33.866Z,15.27
2023-04-14T09:59:02.835Z,13.95
2023-04-14T10:01:34.470Z,15.88
2023-04-14T10:04:03.100Z,14.30
2023-04-14T10:06:32.487Z,16.35
2023-04-14T10:09:00.891Z,14.10
2023-04-14T10:11:30.677Z,16.38
2023-04-14T10:14:03.121Z,17.40
2023-04-14T10:16:30.320Z,16.73
2023-04-14T10:19:00.938Z,14.10
2023-04-14T10:21:28.441Z,16.55
2023-04-14T10:23:57.401Z,15.35
2023-04-14T10:26:24.558Z,16.52
2023-04-14T10:28:54.086Z,17.45
2023-04-14T10:31:25.481Z,15.63
2023-04-14T10:33:54.405Z,16.23
2023-04-14T10:36:29.352Z,13.77
2023-04-14T10:39:02.437Z,13.98
2023-04-14T10:41:48.638Z,13.02
2023-04-14T10:44:26.712Z,18.20
2023-04-14T10:46:56.690Z,15.50
2023-04-14T10:49:49.611Z,12.63
2023-04-14T10:52:17.041Z,13.13
2023-04-14T10:55:01.478Z,12.88
2023-04-14T10:57:29.956Z,13.57
2023-04-14T10:59:59.235Z,14.18
2023-04-14T11:02:31.158Z,13.02
2023-04-14T11:05:04.240Z,11.32
2023-04-14T11:07:38.709Z,15.57
2023-04-14T11:10:18.056Z,15.80
2023-04-14T11:12:46.561Z,12.47
2023-04-14T11:15:14.713Z,13.95
2023-04-14T11:17:46.137Z,12.93
2023-04-14T11:20:18.352Z,15.20
2023-04-14T11:22:47.049Z,16.55
2023-04-14T11:25:16.498Z,12.27
2023-04-14T11:27:44.882Z,15.70
2023-04-14T11:30:18.021Z,12.25
2023-04-14T11:32:59.814Z,13.07
2023-04-14T11:35:28.616Z,12.45
2023-04-14T11:38:00.237Z,15.18
2023-04-14T11:40:28.075Z,11.38
2023-04-14T11:42:59.210Z,11.40
2023-04-14T11:45:30.522Z,12.02
2023-04-14T11:48:06.124Z,9.73
2023-04-14T11:50:39.133Z,12.07
2023-04-14T11:53:10.498Z,9.40
2023-04-14T11:55:38.003Z,13.43
2023-04-14T11:58:05.131Z,10.13
2023-04-14T12:00:32.316Z,11.38
2023-04-14T12:03:03.026Z,10.23
2023-04-14T12:05:31.965Z,11.07
2023-04-14T12:08:08.804Z,10.82
2023-04-14T12:10:41.354Z,11.90
2023-04-14T12:13:12.193Z,10.93
2023-04-14T12:15:42.015Z,9.82
2023-04-14T12:18:11.769Z,13.45
2023-04-14T12:20:43.221Z,13.18
2023-04-14T12:23:10.434Z,11.68
2023-04-14T12:25:37.647Z,11.35
2023-04-14T12:28:07.599Z,12.68
2023-04-14T12:30:36.304Z,10.77
2023-04-14T12:33:13.525Z,10.05
2023-04-14T12:35:41.052Z,11.23
2023-04-14T12:38:15.064Z,9.95
2023-04-14T12:40:46.139Z,9.90
2023-04-14T12:43:14.588Z,9.35
2023-04-14T12:45:46.828Z,9.52
2023-04-14T12:48:16.142Z,11.70
2023-04-14T12:50:43.871Z,16.73
2023-04-14T12:53:28.737Z,9.60
2023-04-14T12:56:16.703Z,10.75
2023-04-14T12:58:48.746Z,12.95
2023-04-14T13:01:18.549Z,15.60
2023-04-14T13:03:56.054Z,10.98
2023-04-14T13:06:25.017Z,10.23
2023-04-14T13:08:53.820Z,14.02
2023-04-14T13:11:22.525Z,12.77
2023-04-14T13:13:50.402Z,9.60
2023-04-14T13:16:19.061Z,9.20
2023-04-14T13:18:48.172Z,9.10
2023-04-14T13:21:16.119Z,11.32
2023-04-14T13:23:43.407Z,10.10
2023-04-14T13:26:11.058Z,9.05
2023-04-14T13:28:38.456Z,9.90
2023-04-14T13:31:05.735Z,11.20
2023-04-14T13:33:33.366Z,9.98
2023-04-14T13:36:02.632Z,8.73
2023-04-14T13:38:30.220Z,11.87
2023-04-14T13:40:57.310Z,7.93
2023-04-14T13:43:24.979Z,9.07
2023-04-14T13:45:53.007Z,9.27
2023-04-14T13:48:20.191Z,13.07
2023-04-14T13:50:47.728Z,9.55
2023-04-14T13:53:14.868Z,10.90
2023-04-14T13:55:42.200Z,8.88
2023-04-14T13:58:09.784Z,9.43
2023-04-14T14:00:37.147Z,11.20
2023-04-14T14:03:04.412Z,11.52
2023-04-14T14:05:31.797Z,11.65
2023-04-14T14:07:59.095Z,10.77
2023-04-14T14:10:26.311Z,11.48
2023-04-14T14:12:54.197Z,9.32
2023-04-14T14:15:21.295Z,10.15
2023-04-14T14:17:48.757Z,10.07
2023-04-14T14:20:16.033Z,13.00
2023-04-14T14:22:43.174Z,17.85
2023-04-14T14:25:18.457Z,12.77
2023-04-14T14:27:47.926Z,9.35
2023-04-14T14:30:15.084Z,11.32
2023-04-14T14:32:42.355Z,10.40
2023-04-14T14:35:09.814Z,10.02
2023-04-14T14:37:36.965Z,9.13
2023-04-14T14:40:04.453Z,15.77
2023-04-14T14:42:31.751Z,14.57
2023-04-14T14:45:01.014Z,19.70
2023-04-14T14:47:28.707Z,15.70
2023-04-14T14:50:02.332Z,12.15
2023-04-14T14:52:32.336Z,12.93
2023-04-14T14:54:59.661Z,12.55
2023-04-14T14:57:27.465Z,15.35
2023-04-14T14:59:54.711Z,9.35
2023-04-14T15:02:22.670Z,14.40
2023-04-14T15:04:50.278Z,10.25
2023-04-14T15:07:18.233Z,11.20
2023-04-14T15:09:49.864Z,7.32
2023-04-14T15:12:17.838Z,10.25
2023-04-14T15:14:45.150Z,12.35
2023-04-14T15:17:12.324Z,13.57
2023-04-14T15:19:39.578Z,9.85
2023-04-14T15:22:08.051Z,8.85
2023-04-14T15:24:35.489Z,10.02
2023-04-14T15:27:02.887Z,8.82
2023-04-14T15:29:30.760Z,9.20
2023-04-14T15:31:57.916Z,9.73
2023-04-14T15:34:25.485Z,9.63
2023-04-14T15:36:52.629Z,7.25
2023-04-14T15:39:19.721Z,10.45
2023-04-14T15:41:47.783Z,8.30
2023-04-14T15:44:14.911Z,12.20
2023-04-14T15:46:42.004Z,10.95
2023-04-14T15:49:09.154Z,11.85
2023-04-14T15:51:36.992Z,12.93
2023-04-14T15:54:04.618Z,12.75
2023-04-14T15:56:32.041Z,10.65
2023-04-14T15:58:59.109Z,12.15
2023-04-14T16:01:26.376Z,11.88
2023-04-14T16:03:53.611Z,13.95
2023-04-14T16:06:20.777Z,8.32
2023-04-14T16:08:47.908Z,7.85
2023-04-14T16:11:16.660Z,10.57
2023-04-14T16:13:44.729Z,14.25
2023-04-14T16:16:13.805Z,9.85
2023-04-14T16:18:40.993Z,9.30
2023-04-14T16:21:08.290Z,10.10
2023-04-14T16:23:35.956Z,8.00
2023-04-14T16:26:03.117Z,9.35
2023-04-14T16:28:30.228Z,9.48
2023-04-14T16:31:01.824Z,7.03
2023-04-14T16:33:29.469Z,9.07
2023-04-14T16:36:00.066Z,6.75
2023-04-14T16:38:27.329Z,10.82
2023-04-14T16:40:58.761Z,8.98
2023-04-14T16:43:27.307Z,6.28
2023-04-14T16:46:02.148Z,7.97
2023-04-14T16:48:29.775Z,6.90
2023-04-14T16:50:57.699Z,5.63
2023-04-14T16:53:24.836Z,5.20
2023-04-14T16:55:51.983Z,7.72
2023-04-14T16:58:19.168Z,7.00
2023-04-14T17:00:46.517Z,30.33
2023-04-14T17:03:13.906Z,7.88
2023-04-14T17:05:41.155Z,6.55
2023-04-14T17:08:08.231Z,8.52
2023-04-14T17:10:35.371Z,6.25
2023-04-14T17:13:02.585Z,8.95
2023-04-14T17:15:29.751Z,6.15
2023-04-14T17:17:56.932Z,5.90
2023-04-14T17:20:24.086Z,6.68
2023-04-14T17:22:53.360Z,6.38
2023-04-14T17:25:21.262Z,6.05
2023-04-14T17:27:48.536Z,7.18
2023-04-14T17:30:15.612Z,5.97
2023-04-14T17:32:43.396Z,5.63
2023-04-14T17:35:11.106Z,7.50
2023-04-14T17:37:38.299Z,6.10
2023-04-14T17:40:06.699Z,5.53
2023-04-14T17:42:34.543Z,6.70
2023-04-14T17:45:01.826Z,6.20
2023-04-14T17:47:29.560Z,6.85
2023-04-14T17:49:56.644Z,9.25
2023-04-14T17:52:23.823Z,7.20
2023-04-14T17:54:51.833Z,5.43
2023-04-14T17:57:19.054Z,8.18
2023-04-14T17:59:46.276Z,6.95
2023-04-14T18:02:16.525Z,6.07
2023-04-14T18:04:43.970Z,4.78
2023-04-14T18:07:11.221Z,6.95
2023-04-14T18:09:38.382Z,5.40
2023-04-14T18:12:06.181Z,4.95
2023-04-14T18:14:33.499Z,7.55
2023-04-14T18:17:00.624Z,8.88
2023-04-14T18:19:28.490Z,8.88
2023-04-14T18:21:57.028Z,5.90
2023-04-14T18:26:54.992Z,6.55
2023-04-14T18:29:22.100Z,9.02
2023-04-14T18:31:49.899Z,16.23
2023-04-14T18:34:17.207Z,35.42
2023-04-14T18:36:44.374Z,54.72
2023-04-14T18:39:11.476Z,29.85
2023-04-14T18:41:38.784Z,18.60
2023-04-14T18:44:06.802Z,11.68
2023-04-14T18:46:33.935Z,8.82
2023-04-14T18:49:01.652Z,12.95
2023-04-14T18:51:28.948Z,8.52
2023-04-14T18:53:56.006Z,11.70
2023-04-14T18:56:23.104Z,11.15
2023-04-14T18:58:51.579Z,9.13
2023-04-14T19:01:19.329Z,10.10
2023-04-14T19:03:47.374Z,9.38
2023-04-14T19:06:14.838Z,8.40
2023-04-14T19:08:41.913Z,15.43
2023-04-14T19:11:10.013Z,25.02
2023-04-14T19:13:38.801Z,16.52
2023-04-14T19:16:08.609Z,12.02
2023-04-14T19:18:36.413Z,11.25
2023-04-14T19:21:03.628Z,14.20
2023-04-14T19:23:30.885Z,11.43
2023-04-14T19:25:58.145Z,10.60
2023-04-14T19:28:26.207Z,10.90
2023-04-14T19:30:53.414Z,10.73
2023-04-14T19:33:21.151Z,12.02
2023-04-14T19:35:49.289Z,12.73
2023-04-14T19:38:16.489Z,12.27
2023-04-14T19:40:50.141Z,12.68
2023-04-14T19:43:18.442Z,12.70
2023-04-14T19:45:52.497Z,14.95
2023-04-14T19:48:23.855Z,15.05
2023-04-14T19:50:55.464Z,18.00
2023-04-14T19:53:23.436Z,19.15
2023-04-14T19:55:57.109Z,15.27
2023-04-14T19:58:26.305Z,14.40
2023-04-14T20:00:58.205Z,12.95
2023-04-14T20:03:26.743Z,14.50
2023-04-14T20:05:56.215Z,11.57
2023-04-14T20:08:25.270Z,11.05
2023-04-14T20:10:54.362Z,14.85
2023-04-14T20:13:23.458Z,12.13
2023-04-14T20:15:54.199Z,14.63
2023-04-14T20:18:23.021Z,9.35
2023-04-14T20:20:50.566Z,8.57
2023-04-14T20:23:17.657Z,9.98
2023-04-14T20:25:45.870Z,9.25
2023-04-14T20:28:14.119Z,9.48
2023-04-14T20:30:43.000Z,8.38
2023-04-14T20:33:10.774Z,13.45
2023-04-14T20:35:39.859Z,10.30
2023-04-14T20:38:07.747Z,10.45
2023-04-14T20:40:35.517Z,9.88
2023-04-14T20:43:02.705Z,12.48
2023-04-14T20:45:30.214Z,7.03
2023-04-14T20:47:57.486Z,8.25
2023-04-14T20:50:24.834Z,8.25
2023-04-14T20:52:51.896Z,8.25
2023-04-14T20:55:19.728Z,9.43
2023-04-14T20:57:48.185Z,12.65
2023-04-14T21:00:16.996Z,12.05
2023-04-14T21:02:45.118Z,12.27
2023-04-14T21:05:12.941Z,8.68
2023-04-14T21:07:40.212Z,10.98
2023-04-14T21:10:09.820Z,9.93
2023-04-14T21:12:54.258Z,11.20
2023-04-14T21:15:50.274Z,10.70
2023-04-14T21:18:12.291Z,10.25
2023-04-14T21:20:40.040Z,10.90
2023-04-14T21:23:07.524Z,11.02
2023-04-14T21:25:35.502Z,11.18
2023-04-14T21:28:03.751Z,12.32
2023-04-14T21:30:31.779Z,9.95
2023-04-14T21:32:59.456Z,12.15
2023-04-14T21:35:26.543Z,11.07
2023-04-14T21:37:53.735Z,12.65
2023-04-14T21:40:21.695Z,10.27
2023-04-14T21:42:48.927Z,12.68
2023-04-14T21:45:16.181Z,12.18
2023-04-14T21:47:43.366Z,14.60
2023-04-14T21:50:10.921Z,10.13
2023-04-14T21:52:38.072Z,9.68
2023-04-14T21:55:05.662Z,12.02
2023-04-14T21:57:48.464Z,9.95
2023-04-14T22:00:20.539Z,11.73
2023-04-14T22:02:48.304Z,12.68
2023-04-14T22:05:15.960Z,16.08
2023-04-14T22:07:43.074Z,11.48
2023-04-14T22:10:10.401Z,11.93
2023-04-14T22:12:39.940Z,15.32
2023-04-14T22:15:08.893Z,17.13
2023-04-14T22:17:37.719Z,11.05
2023-04-14T22:20:06.576Z,12.70
2023-04-14T22:22:34.826Z,11.85
2023-04-14T22:25:05.861Z,11.23
2023-04-14T22:27:34.112Z,11.77
2023-04-14T22:30:02.232Z,12.93
2023-04-14T22:32:29.398Z,12.40
2023-04-14T22:34:56.562Z,16.42
2023-04-14T22:37:23.691Z,12.18
2023-04-14T22:39:51.872Z,18.98
2023-04-14T22:42:19.032Z,11.80
2023-04-14T22:44:48.270Z,10.85
2023-04-14T22:47:15.686Z,11.70
2023-04-14T22:49:42.763Z,10.50
2023-04-14T22:52:09.804Z,12.02
2023-04-14T22:54:36.831Z,12.52
2023-04-14T22:57:04.416Z,10.23
2023-04-14T22:59:32.274Z,11.48
2023-04-14T23:01:59.450Z,10.07
2023-04-14T23:04:26.994Z,12.43
2023-04-14T23:06:54.236Z,11.45
2023-04-14T23:09:21.370Z,12.75
2023-04-14T23:11:48.763Z,10.90
2023-04-14T23:14:15.958Z,10.13
2023-04-14T23:16:43.982Z,11.40
2023-04-14T23:19:11.142Z,12.35
2023-04-14T23:21:39.018Z,11.82
2023-04-14T23:24:06.952Z,12.35
2023-04-14T23:26:34.318Z,10.55
2023-04-14T23:29:01.834Z,10.90
2023-04-14T23:31:29.223Z,13.50
2023-04-14T23:33:56.499Z,10.32
2023-04-14T23:36:24.366Z,12.45
2023-04-14T23:38:51.472Z,10.38
2023-04-14T23:41:19.132Z,13.15
2023-04-14T23:43:46.949Z,10.48
2023-04-14T23:46:14.048Z,12.13
2023-04-14T23:48:41.359Z,13.93
2023-04-14T23:51:18.181Z,11.27
2023-04-14T23:53:46.739Z,10.48
2023-04-14T23:56:13.776Z,11.90
2023-04-14T23:58:40.875Z,12.48
